createdAt,value
2023-04-25T00:02:25.271Z,99.90
2023-04-25T00:05:03.363Z,99.90
2023-04-25T00:07:32.405Z,99.90
2023-04-25T00:10:04.384Z,99.90
2023-04-25T00:12:32.372Z,99.90
2023-04-25T00:15:01.158Z,99.90
2023-04-25T00:17:29.155Z,99.90
2023-04-25T00:19:59.856Z,99.90
2023-04-25T00:22:30.559Z,99.90
2023-04-25T00:25:01.313Z,99.90
2023-04-25T00:27:32.214Z,99.90
2023-04-25T00:30:00.943Z,99.90
2023-04-25T00:32:36.357Z,99.90
2023-04-25T00:35:04.826Z,99.90
2023-04-25T00:37:33.338Z,99.90
2023-04-25T00:40:01.516Z,99.90
2023-04-25T00:42:33.812Z,99.90
2023-04-25T00:45:03.533Z,99.90
2023-04-25T00:47:35.497Z,99.90
2023-04-25T00:50:07.424Z,99.90
2023-04-25T00:52:35.619Z,99.90
2023-04-25T00:55:03.958Z,99.90
2023-04-25T00:57:32.667Z,99.90
2023-04-25T01:00:01.093Z,99.90
2023-04-25T01:02:33.403Z,99.90
2023-04-25T01:10:02.730Z,99.90
2023-04-25T01:12:33.799Z,99.90
2023-04-25T01:15:04.966Z,99.90
2023-04-25T01:17:42.621Z,99.90
2023-04-25T01:20:12.442Z,99.90
2023-04-25T01:22:44.706Z,99.90
2023-04-25T01:25:13.171Z,99.90
2023-04-25T01:27:44.760Z,99.90
2023-04-25T01:30:14.234Z,99.90
2023-04-25T01:32:43.431Z,99.90
2023-04-25T01:35:24.955Z,99.90
2023-04-25T01:37:55.230Z,99.90
2023-04-25T01:40:24.427Z,99.90
2023-04-25T01:42:52.494Z,99.90
2023-04-25T01:45:27.192Z,99.90
2023-04-25T01:47:55.889Z,99.90
2023-04-25T01:50:23.675Z,99.90
2023-04-25T01:52:52.043Z,99.90
2023-04-25T01:55:21.274Z,99.90
2023-04-25T01:58:04.304Z,99.90
2023-04-25T02:00:53.435Z,99.90
2023-04-25T02:03:22.271Z,99.90
2023-04-25T02:05:50.224Z,99.90
2023-04-25T02:08:19.506Z,99.90
2023-04-25T02:10:47.270Z,99.90
2023-04-25T02:13:22.096Z,99.90
2023-04-25T02:16:02.160Z,99.90
2023-04-25T02:18:34.840Z,99.90
2023-04-25T02:21:02.870Z,99.90
2023-04-25T02:23:31.105Z,99.90
2023-04-25T02:26:01.179Z,99.90
2023-04-25T02:28:28.849Z,99.90
2023-04-25T02:30:56.485Z,99.90
2023-04-25T02:33:25.756Z,99.90
2023-04-25T02:35:53.371Z,99.90
2023-04-25T02:38:23.253Z,99.90
2023-04-25T02:40:50.880Z,99.90
2023-04-25T02:43:19.451Z,99.90
2023-04-25T02:45:47.074Z,99.90
2023-04-25T02:48:17.587Z,99.90
2023-04-25T02:50:45.815Z,99.90
2023-04-25T02:53:13.518Z,99.90
2023-04-25T02:55:49.633Z,99.90
2023-04-25T02:58:20.568Z,99.90
2023-04-25T03:00:51.637Z,99.90
2023-04-25T03:03:22.748Z,99.90
2023-04-25T03:05:53.020Z,99.90
2023-04-25T03:08:33.372Z,99.90
2023-04-25T03:11:02.370Z,99.90
2023-04-25T03:13:31.060Z,99.90
2023-04-25T03:15:59.420Z,99.90
2023-04-25T03:18:30.318Z,99.90
2023-04-25T03:20:58.144Z,99.90
2023-04-25T03:23:26.088Z,99.90
2023-04-25T03:25:53.823Z,99.90
2023-04-25T03:28:22.802Z,99.90
2023-04-25T03:30:53.599Z,99.90
2023-04-25T03:33:23.215Z,99.90
2023-04-25T03:35:52.968Z,99.90
2023-04-25T03:38:20.788Z,99.90
2023-04-25T03:40:51.697Z,99.90
2023-04-25T03:43:23.683Z,99.90
2023-04-25T03:45:58.408Z,99.90
2023-04-25T03:48:27.579Z,99.90
2023-04-25T03:50:56.245Z,99.90
2023-04-25T03:53:24.982Z,99.90
2023-04-25T03:56:22.040Z,99.90
2023-04-25T03:59:00.830Z,99.90
2023-04-25T04:01:30.473Z,99.90
2023-04-25T04:03:59.066Z,99.90
2023-04-25T04:06:28.045Z,99.90
2023-04-25T04:09:04.432Z,99.90
2023-04-25T04:11:37.809Z,99.90
2023-04-25T04:14:10.968Z,99.90
2023-04-25T04:16:43.374Z,99.90
2023-04-25T04:21:44.697Z,99.90
2023-04-25T04:24:12.498Z,99.90
2023-04-25T04:26:51.802Z,99.90
2023-04-25T04:29:37.781Z,99.90
2023-04-25T04:32:26.414Z,99.90
2023-04-25T04:34:58.257Z,99.90
2023-04-25T04:37:27.299Z,99.90
2023-04-25T04:39:55.081Z,99.90
2023-04-25T04:42:41.930Z,99.90
2023-04-25T04:45:48.667Z,99.90
2023-04-25T04:48:52.791Z,99.90
2023-04-25T04:51:47.159Z,99.90
2023-04-25T04:54:33.575Z,99.90
2023-04-25T04:57:21.539Z,99.90
2023-04-25T05:00:12.397Z,99.90
2023-04-25T05:02:42.820Z,99.90
2023-04-25T05:05:36.810Z,99.90
2023-04-25T05:08:19.294Z,99.90
2023-04-25T05:11:16.780Z,99.90
2023-04-25T05:14:07.899Z,99.90
2023-04-25T05:17:01.515Z,99.90
2023-04-25T05:19:52.283Z,99.90
2023-04-25T05:22:48.115Z,99.90
2023-04-25T05:25:21.273Z,99.90
2023-04-25T05:28:07.065Z,99.90
2023-04-25T05:31:13.260Z,99.90
2023-04-25T05:33:55.434Z,99.90
2023-04-25T05:36:27.016Z,99.90
2023-04-25T05:38:55.301Z,99.90
2023-04-25T05:41:25.509Z,99.90
2023-04-25T05:44:11.932Z,99.90
2023-04-25T05:47:00.405Z,99.90
2023-04-25T05:49:46.848Z,99.90
2023-04-25T05:52:26.093Z,99.90
2023-04-25T05:55:12.495Z,99.90
2023-04-25T05:57:51.515Z,99.90
2023-04-25T06:00:19.976Z,99.90
2023-04-25T06:02:53.414Z,99.90
2023-04-25T06:05:22.061Z,99.90
2023-04-25T06:07:50.280Z,99.90
2023-04-25T06:10:21.618Z,99.90
2023-04-25T06:12:49.960Z,99.90
2023-04-25T06:17:51.670Z,99.90
2023-04-25T06:20:20.731Z,99.90
2023-04-25T06:22:49.123Z,99.90
2023-04-25T06:25:20.111Z,99.90
2023-04-25T06:27:48.836Z,99.90
2023-04-25T06:30:19.599Z,99.90
2023-04-25T06:32:47.416Z,99.90
2023-04-25T06:35:15.206Z,99.90
2023-04-25T06:37:43.184Z,99.90
2023-04-25T06:40:11.564Z,99.90
2023-04-25T06:42:39.606Z,99.90
2023-04-25T06:45:30.080Z,99.90
2023-04-25T06:47:58.641Z,99.90
2023-04-25T06:50:29.142Z,99.90
2023-04-25T06:55:31.476Z,99.90
2023-04-25T06:58:19.821Z,99.90
2023-04-25T07:00:56.721Z,99.90
2023-04-25T07:03:30.630Z,99.90
2023-04-25T07:06:11.521Z,99.90
2023-04-25T07:08:47.464Z,99.90
2023-04-25T07:11:23.955Z,99.90
2023-04-25T07:13:58.857Z,99.90
2023-04-25T07:16:26.873Z,99.90
2023-04-25T07:18:54.702Z,99.90
2023-04-25T07:21:25.047Z,99.90
2023-04-25T07:23:56.914Z,99.90
2023-04-25T07:26:30.142Z,99.90
2023-04-25T07:29:16.019Z,99.90
2023-04-25T07:31:46.773Z,99.90
2023-04-25T07:34:14.363Z,99.90
2023-04-25T07:36:42.066Z,99.90
2023-04-25T07:39:10.229Z,99.90
2023-04-25T07:41:38.140Z,99.90
2023-04-25T07:44:07.710Z,99.90
2023-04-25T07:46:36.710Z,99.90
2023-04-25T07:49:05.887Z,99.90
2023-04-25T07:51:33.770Z,99.90
2023-04-25T07:54:07.957Z,99.90
2023-04-25T07:56:49.251Z,99.90
2023-04-25T07:59:21.175Z,99.90
2023-04-25T08:01:48.950Z,99.90
2023-04-25T08:04:18.721Z,99.90
2023-04-25T08:06:57.492Z,99.90
2023-04-25T08:09:28.798Z,99.90
2023-04-25T08:11:58.021Z,99.90
2023-04-25T08:14:36.580Z,99.90
2023-04-25T08:17:05.444Z,99.90
2023-04-25T08:19:34.987Z,99.90
2023-04-25T08:22:03.609Z,99.90
2023-04-25T08:24:43.144Z,99.90
2023-04-25T08:27:11.008Z,99.90
2023-04-25T08:29:38.809Z,99.90
2023-04-25T08:32:07.219Z,99.90
2023-04-25T08:34:38.985Z,99.90
2023-04-25T08:37:06.766Z,99.90
2023-04-25T08:39:43.108Z,99.90
2023-04-25T08:42:31.282Z,99.90
2023-04-25T08:45:03.005Z,99.90
2023-04-25T08:47:38.522Z,99.90
2023-04-25T08:50:08.013Z,99.90
2023-04-25T08:52:45.727Z,99.90
2023-04-25T08:55:17.073Z,99.90
2023-04-25T08:57:46.085Z,99.90
2023-04-25T09:00:15.610Z,99.90
2023-04-25T09:02:45.811Z,99.90
2023-04-25T09:05:14.615Z,99.90
2023-04-25T09:10:10.883Z,99.90
2023-04-25T09:12:40.186Z,99.90
2023-04-25T09:15:20.447Z,99.90
2023-04-25T09:18:01.240Z,99.90
2023-04-25T09:23:16.436Z,99.90
2023-04-25T09:25:44.474Z,99.90
2023-04-25T09:28:12.437Z,99.90
2023-04-25T09:30:40.109Z,99.90
2023-04-25T09:33:14.944Z,99.90
2023-04-25T09:35:56.574Z,99.90
2023-04-25T09:38:47.469Z,99.90
2023-04-25T09:41:30.663Z,99.90
2023-04-25T09:44:02.728Z,99.90
2023-04-25T09:46:37.748Z,99.90
2023-04-25T09:49:09.424Z,99.90
2023-04-25T09:51:58.658Z,99.90
2023-04-25T09:54:30.426Z,99.90
2023-04-25T09:57:14.284Z,99.90
2023-04-25T09:59:48.416Z,99.90
2023-04-25T10:02:22.386Z,99.90
2023-04-25T10:04:56.527Z,99.90
2023-04-25T10:07:39.423Z,99.90
2023-04-25T10:10:13.737Z,99.90
2023-04-25T10:12:43.853Z,99.90
2023-04-25T10:15:12.649Z,99.90
2023-04-25T10:17:41.239Z,99.90
2023-04-25T10:20:11.802Z,99.90
2023-04-25T10:22:44.792Z,99.90
2023-04-25T10:25:13.963Z,99.90
2023-04-25T10:27:42.015Z,99.90
2023-04-25T10:30:16.225Z,99.90
2023-04-25T10:32:44.947Z,99.90
2023-04-25T10:35:17.143Z,99.90
2023-04-25T10:38:05.622Z,99.90
2023-04-25T10:40:34.185Z,99.20
2023-04-25T10:43:34.491Z,99.10
2023-04-25T10:46:02.324Z,99.30
2023-04-25T10:48:31.378Z,99.90
2023-04-25T10:51:40.032Z,99.90
2023-04-25T10:54:19.166Z,98.80
2023-04-25T10:56:46.872Z,96.70
2023-04-25T10:59:16.808Z,97.00
2023-04-25T11:01:46.892Z,98.00
2023-04-25T11:04:25.139Z,97.70
2023-04-25T11:07:10.706Z,97.50
2023-04-25T11:09:41.410Z,97.80
2023-04-25T11:12:10.604Z,96.90
2023-04-25T11:14:38.306Z,95.80
2023-04-25T11:17:06.790Z,96.60
2023-04-25T11:19:34.485Z,96.60
2023-04-25T11:22:03.638Z,97.00
2023-04-25T11:24:32.891Z,97.40
2023-04-25T11:27:05.075Z,97.50
2023-04-25T11:29:35.076Z,95.20
2023-04-25T11:32:03.444Z,95.60
2023-04-25T11:34:33.794Z,95.90
2023-04-25T11:37:05.410Z,95.60
2023-04-25T11:39:33.027Z,96.10
2023-04-25T11:42:02.468Z,90.00
2023-04-25T11:44:32.863Z,88.40
2023-04-25T11:47:00.581Z,88.70
2023-04-25T11:49:33.036Z,86.40
2023-04-25T11:52:00.986Z,87.30
2023-04-25T11:54:28.530Z,86.90
2023-04-25T11:56:56.333Z,92.10
2023-04-25T11:59:30.531Z,92.50
2023-04-25T12:01:58.894Z,93.10
2023-04-25T12:04:27.376Z,88.60
2023-04-25T12:06:56.717Z,87.80
2023-04-25T12:09:33.062Z,87.40
2023-04-25T12:12:05.083Z,80.10
2023-04-25T12:14:34.760Z,79.00
2023-04-25T12:17:05.217Z,79.60
2023-04-25T12:19:35.184Z,79.10
2023-04-25T12:22:04.517Z,77.70
2023-04-25T12:24:38.455Z,78.30
2023-04-25T12:27:11.669Z,80.70
2023-04-25T12:29:49.303Z,89.00
2023-04-25T12:32:18.822Z,81.40
2023-04-25T12:34:46.601Z,80.60
2023-04-25T12:37:14.543Z,73.10
2023-04-25T12:39:42.084Z,76.00
2023-04-25T12:42:13.085Z,74.90
2023-04-25T12:44:41.851Z,71.50
2023-04-25T12:47:09.657Z,71.70
2023-04-25T12:49:37.386Z,65.10
2023-04-25T12:52:04.956Z,63.30
2023-04-25T12:54:32.752Z,63.30
2023-04-25T12:57:00.403Z,64.00
2023-04-25T12:59:29.524Z,64.10
2023-04-25T13:01:57.120Z,63.50
2023-04-25T13:04:24.968Z,64.30
2023-04-25T13:06:52.581Z,64.70
2023-04-25T13:09:20.143Z,65.80
2023-04-25T13:11:49.943Z,66.70
2023-04-25T13:14:20.681Z,67.40
2023-04-25T13:16:48.287Z,68.20
2023-04-25T13:19:16.072Z,69.00
2023-04-25T13:21:46.901Z,67.30
2023-04-25T13:24:14.501Z,69.80
2023-04-25T13:26:42.047Z,70.50
2023-04-25T13:29:10.011Z,70.20
2023-04-25T13:31:37.643Z,77.70
2023-04-25T13:34:05.438Z,74.60
2023-04-25T13:36:33.027Z,74.90
2023-04-25T13:39:00.625Z,64.00
2023-04-25T13:41:28.249Z,64.30
2023-04-25T13:43:55.961Z,61.20
2023-04-25T13:46:44.708Z,61.20
2023-04-25T13:49:13.212Z,65.20
2023-04-25T13:51:41.848Z,65.40
2023-04-25T13:54:09.754Z,60.80
2023-04-25T13:56:37.666Z,60.20
2023-04-25T13:59:05.375Z,58.90
2023-04-25T14:01:35.282Z,57.80
2023-04-25T14:04:05.169Z,56.90
2023-04-25T14:06:34.104Z,57.20
2023-04-25T14:09:02.088Z,57.50
2023-04-25T14:11:29.781Z,53.90
2023-04-25T14:13:57.465Z,55.00
2023-04-25T14:16:25.269Z,56.90
2023-04-25T14:18:55.409Z,54.20
2023-04-25T14:21:23.054Z,54.50
2023-04-25T14:23:50.970Z,53.80
2023-04-25T14:26:18.749Z,54.30
2023-04-25T14:28:46.378Z,55.30
2023-04-25T14:31:14.094Z,53.80
2023-04-25T14:33:43.769Z,52.70
2023-04-25T14:36:12.114Z,52.90
2023-04-25T14:38:39.903Z,53.60
2023-04-25T14:41:07.513Z,51.60
2023-04-25T14:46:03.542Z,52.20
2023-04-25T14:48:31.635Z,53.90
2023-04-25T14:51:00.765Z,51.30
2023-04-25T14:53:29.007Z,50.50
2023-04-25T14:55:56.610Z,51.00
2023-04-25T14:58:24.243Z,51.30
2023-04-25T15:00:51.951Z,51.30
2023-04-25T15:03:20.285Z,52.10
2023-04-25T15:05:48.972Z,52.50
2023-04-25T15:08:19.090Z,55.50
2023-04-25T15:10:48.441Z,54.00
2023-04-25T15:13:16.605Z,52.50
2023-04-25T15:15:44.286Z,53.40
2023-04-25T15:18:12.170Z,54.50
2023-04-25T15:20:39.774Z,53.80
2023-04-25T15:23:07.445Z,53.30
2023-04-25T15:25:34.981Z,52.20
2023-04-25T15:28:02.756Z,52.50
2023-04-25T15:30:30.528Z,52.40
2023-04-25T15:32:58.432Z,51.10
2023-04-25T15:35:29.370Z,51.00
2023-04-25T15:37:57.132Z,51.60
2023-04-25T15:40:24.709Z,53.20
2023-04-25T15:42:53.994Z,54.10
2023-04-25T15:45:26.381Z,54.80
2023-04-25T15:47:58.017Z,54.20
2023-04-25T15:50:25.981Z,53.30
2023-04-25T15:52:53.693Z,52.50
2023-04-25T15:55:24.877Z,52.80
2023-04-25T15:57:53.245Z,53.10
2023-04-25T16:00:22.505Z,53.50
2023-04-25T16:02:53.455Z,54.00
2023-04-25T16:05:21.519Z,54.30
2023-04-25T16:07:50.503Z,55.20
2023-04-25T16:10:21.522Z,55.90
2023-04-25T16:12:50.542Z,56.60
2023-04-25T16:15:18.738Z,57.20
2023-04-25T16:17:46.500Z,57.90
2023-04-25T16:20:14.825Z,57.50
2023-04-25T16:22:43.526Z,58.70
2023-04-25T16:25:12.433Z,58.80
2023-04-25T16:27:43.183Z,59.30
2023-04-25T16:30:11.683Z,59.80
2023-04-25T16:32:41.784Z,60.30
2023-04-25T16:35:12.150Z,61.30
2023-04-25T16:37:39.930Z,60.80
2023-04-25T16:40:10.885Z,61.00
2023-04-25T16:42:38.501Z,61.50
2023-04-25T16:45:06.624Z,61.40
2023-04-25T16:47:37.393Z,61.20
2023-04-25T16:50:05.988Z,61.80
2023-04-25T16:52:33.677Z,61.50
2023-04-25T16:55:01.554Z,61.90
2023-04-25T16:57:29.200Z,62.00
2023-04-25T16:59:57.614Z,61.10
2023-04-25T17:02:25.512Z,61.00
2023-04-25T17:04:54.054Z,61.20
2023-04-25T17:07:24.540Z,61.30
2023-04-25T17:09:52.422Z,61.20
2023-04-25T17:12:20.775Z,61.20
2023-04-25T17:14:49.748Z,61.10
2023-04-25T17:17:22.572Z,61.60
2023-04-25T17:19:50.476Z,60.80
2023-04-25T17:22:18.231Z,61.40
2023-04-25T17:24:48.765Z,61.40
2023-04-25T17:27:16.944Z,61.10
2023-04-25T17:29:44.581Z,61.20
2023-04-25T17:32:17.288Z,61.10
2023-04-25T17:37:17.891Z,61.70
2023-04-25T17:39:48.578Z,62.20
2023-04-25T17:42:17.434Z,62.20
2023-04-25T17:44:45.214Z,61.40
2023-04-25T17:47:13.127Z,62.00
2023-04-25T17:49:41.212Z,61.90
2023-04-25T17:52:09.231Z,60.80
2023-04-25T17:54:37.197Z,61.30
2023-04-25T17:57:05.088Z,61.80
2023-04-25T17:59:32.777Z,61.90
2023-04-25T18:02:01.079Z,61.50
2023-04-25T18:04:29.123Z,61.60
2023-04-25T18:06:56.836Z,61.90
2023-04-25T18:09:25.155Z,62.50
2023-04-25T18:11:54.018Z,62.30
2023-04-25T18:14:22.224Z,62.40
2023-04-25T18:16:52.293Z,62.80
2023-04-25T18:19:23.226Z,63.20
2023-04-25T18:21:54.408Z,63.00
2023-04-25T18:24:28.562Z,62.90
2023-04-25T18:27:00.246Z,63.20
2023-04-25T18:29:33.618Z,64.00
2023-04-25T18:32:02.417Z,63.80
2023-04-25T18:34:30.588Z,63.40
2023-04-25T18:36:58.211Z,63.90
2023-04-25T18:39:27.221Z,64.80
2023-04-25T18:42:01.679Z,65.80
2023-04-25T18:44:36.625Z,66.90
2023-04-25T18:47:04.394Z,66.70
2023-04-25T18:49:32.997Z,67.10
2023-04-25T18:52:00.991Z,66.70
2023-04-25T18:54:28.804Z,65.80
2023-04-25T18:56:57.504Z,65.40
2023-04-25T18:59:25.226Z,66.10
2023-04-25T19:01:53.829Z,66.70
2023-04-25T19:04:21.931Z,67.30
2023-04-25T19:06:51.359Z,67.80
2023-04-25T19:09:22.267Z,68.90
2023-04-25T19:11:49.880Z,68.70
2023-04-25T19:14:22.787Z,69.30
2023-04-25T19:16:50.990Z,70.10
2023-04-25T19:19:18.519Z,70.90
2023-04-25T19:21:48.686Z,71.50
2023-04-25T19:24:18.756Z,72.80
2023-04-25T19:26:48.444Z,73.20
2023-04-25T19:31:45.563Z,72.80
2023-04-25T19:34:13.875Z,73.80
2023-04-25T19:36:44.775Z,74.40
2023-04-25T19:39:13.097Z,74.40
2023-04-25T19:41:40.899Z,74.60
2023-04-25T19:44:09.576Z,75.10
2023-04-25T19:46:37.654Z,75.60
2023-04-25T19:49:09.070Z,75.90
2023-04-25T19:51:39.982Z,76.90
2023-04-25T19:54:07.700Z,76.70
2023-04-25T19:56:35.285Z,76.60
2023-04-25T19:59:03.306Z,76.40
2023-04-25T20:01:31.259Z,76.80
2023-04-25T20:03:59.112Z,77.40
2023-04-25T20:06:27.350Z,77.30
2023-04-25T20:08:55.176Z,78.20
2023-04-25T20:11:22.810Z,78.70
2023-04-25T20:13:50.635Z,79.00
2023-04-25T20:16:20.404Z,79.80
2023-04-25T20:18:49.198Z,80.50
2023-04-25T20:21:20.593Z,81.10
2023-04-25T20:23:48.512Z,81.80
2023-04-25T20:26:18.667Z,82.30
2023-04-25T20:28:48.998Z,82.80
2023-04-25T20:31:16.975Z,83.40
2023-04-25T20:33:45.671Z,83.90
2023-04-25T20:36:15.542Z,84.50
2023-04-25T20:38:43.146Z,85.20
2023-04-25T20:41:11.539Z,85.80
2023-04-25T20:43:40.367Z,86.80
2023-04-25T20:46:08.400Z,87.80
2023-04-25T20:48:36.181Z,89.20
2023-04-25T20:51:04.129Z,89.70
2023-04-25T20:53:31.702Z,90.20
2023-04-25T20:55:59.695Z,90.60
2023-04-25T20:58:27.509Z,90.70
2023-04-25T21:00:56.531Z,91.20
2023-04-25T21:03:26.206Z,91.50
2023-04-25T21:05:53.885Z,91.90
2023-04-25T21:08:24.008Z,92.30
2023-04-25T21:10:53.392Z,92.60
2023-04-25T21:13:21.583Z,92.90
2023-04-25T21:15:49.146Z,93.20
2023-04-25T21:18:16.746Z,93.50
2023-04-25T21:20:44.393Z,93.90
2023-04-25T21:23:12.097Z,94.40
2023-04-25T21:25:39.746Z,94.70
2023-04-25T21:28:07.960Z,95.10
2023-04-25T21:30:35.529Z,95.20
2023-04-25T21:33:03.604Z,95.90
2023-04-25T21:35:31.326Z,96.20
2023-04-25T21:37:58.876Z,96.70
2023-04-25T21:40:26.796Z,96.90
2023-04-25T21:42:54.521Z,97.50
2023-04-25T21:45:22.209Z,97.70
2023-04-25T21:47:50.694Z,98.20
2023-04-25T21:50:19.722Z,98.60
2023-04-25T21:52:50.144Z,98.90
2023-04-25T21:55:22.214Z,99.30
2023-04-25T21:57:50.023Z,99.90
2023-04-25T22:00:27.924Z,99.90
2023-04-25T22:02:59.393Z,99.90
2023-04-25T22:07:57.426Z,99.90
2023-04-25T22:10:25.438Z,99.90
2023-04-25T22:12:53.266Z,99.90
2023-04-25T22:15:23.748Z,99.90
2023-04-25T22:17:52.626Z,99.90
2023-04-25T22:20:24.130Z,99.90
2023-04-25T22:22:55.768Z,99.90
2023-04-25T22:25:24.075Z,99.90
2023-04-25T22:27:51.815Z,99.90
2023-04-25T22:30:19.792Z,99.90
2023-04-25T22:32:50.043Z,99.90
2023-04-25T22:35:17.784Z,99.90
2023-04-25T22:37:46.095Z,99.90
2023-04-25T22:40:15.578Z,99.90
2023-04-25T22:42:44.265Z,99.90
2023-04-25T22:45:12.348Z,99.90
2023-04-25T22:47:40.447Z,99.90
2023-04-25T22:50:13.494Z,99.90
2023-04-25T22:52:48.438Z,99.90
2023-04-25T22:55:17.317Z,99.90
2023-04-25T22:57:44.896Z,99.90
2023-04-25T23:00:19.699Z,99.90
2023-04-25T23:02:48.124Z,99.90
2023-04-25T23:05:16.022Z,99.90
2023-04-25T23:07:45.233Z,99.90
2023-04-25T23:10:14.141Z,99.90
2023-04-25T23:12:42.037Z,99.90
2023-04-25T23:15:10.783Z,99.90
2023-04-25T23:17:38.919Z,99.90
2023-04-25T23:20:10.107Z,99.90
2023-04-25T23:22:38.364Z,99.90
2023-04-25T23:25:07.523Z,99.90
2023-04-25T23:27:35.774Z,99.90
2023-04-25T23:30:03.679Z,99.90
2023-04-25T23:32:32.636Z,99.90
2023-04-25T23:35:01.702Z,99.90
2023-04-25T23:37:31.113Z,99.90
2023-04-25T23:39:58.736Z,99.90
2023-04-25T23:42:26.616Z,99.90
2023-04-25T23:44:54.267Z,99.90
2023-04-25T23:47:21.939Z,99.90
2023-04-25T23:49:49.505Z,99.90
2023-04-25T23:52:20.303Z,99.90
2023-04-25T23:54:48.867Z,99.90
2023-04-25T23:57:20.025Z,99.90
2023-04-25T23:59:47.609Z,99.90
